• Join FlightAware (Why Join?)
  • Login
  • US Flag 
09:56AM EDT


 

Airport Tracker/Info


-or-


 

Live Flight TrackerFlight Track Log ✈ UCA596 ✈ 19-Feb-2014 ✈ KIAD - KBGM

Flight Track Log - Related Links

Times and Time Zones

All times are in EST time to prevent confusion due to time zone crossing. See the UCA596 flight status page for this flight to view local times or setup timezone preferences in your user account.

Time Position Orientation Groundspeed Altitude Reporting Facility
EST Latitude Longitude Course Direction KTS MPH feet Rate Location/Type
01:03PM 38.9500 -77.5000 322° Northwest 124 143 1,700  Level Potomac TRACON
01:04PM 38.9833 -77.5333 322° Northwest 180 207 2,600 1,200 Climbing Potomac TRACON
01:05PM 39.0167 -77.5833 311° West 181 208 4,000 1,380 Climbing Potomac TRACON
01:06PM 39.0667 -77.5833 360° North 213 245 5,400 1,260 Climbing Potomac TRACON
01:07PM 39.1333 -77.5667 11° North 209 241 6,600 960 Climbing Potomac TRACON
01:08PM 39.1833 -77.5667 360° North 213 245 7,300 1,020 Climbing Potomac TRACON
01:09PM 39.2333 -77.5500 14° North 222 255 8,600 1,320 Climbing Potomac TRACON
01:10PM 39.3000 -77.5333 11° North 218 251 10,000 1,320 Climbing Potomac TRACON
01:11PM 39.3500 -77.5167 14° North 229 264 11,300 1,200 Climbing Potomac TRACON
01:11PM 39.3758 -77.4869 42° Northeast 248 285 11,900 600 Climbing Washington Center
01:12PM 39.4375 -77.4133 43° Northeast 274 315 12,300 840 Climbing Washington Center
01:13PM 39.4861 -77.3556 43° Northeast 274 315 13,700 1,140 Climbing Washington Center
01:14PM 39.5453 -77.3058 33° Northeast 269 310 14,600 840 Climbing Washington Center
01:15PM 39.5883 -77.3500 322° Northwest 188 216 15,500 1,080 Climbing Washington Center
01:17PM 39.6333 -77.4350 305° West 154 177 17,500 1,200 Climbing New York Center
01:18PM 39.6947 -77.4544 346° North 203 234 18,700 720 Climbing New York Center
01:19PM 39.7594 -77.4525 North 229 264 19,000 120 Climbing New York Center
01:20PM 39.8458 -77.4389 North 270 311 19,000  Level New York Center
01:21PM 39.9192 -77.3944 25° Northeast 292 336 19,000  Level New York Center
01:22PM 40.0094 -77.3461 22° Northeast 306 352 19,000  Level New York Center
01:23PM 40.0806 -77.3067 23° Northeast 312 359 19,000  Level New York Center
01:24PM 40.1683 -77.2633 21° North 307 353 19,000  Level New York Center
01:25PM 40.2417 -77.2211 24° Northeast 307 353 19,000  Level New York Center
01:26PM 40.3297 -77.1722 23° Northeast 307 353 19,000  Level New York Center
01:27PM 40.4028 -77.1328 22° Northeast 307 353 19,000  Level New York Center
01:28PM 40.4928 -77.0836 23° Northeast 307 353 19,000  Level New York Center
01:29PM 40.5639 -77.0436 23° Northeast 307 353 19,000  Level New York Center
01:30PM 40.6539 -76.9944 23° Northeast 307 353 19,000  Level New York Center
01:31PM 40.7269 -76.9544 23° Northeast 307 353 19,000  Level New York Center
01:32PM 40.8192 -76.9025 23° Northeast 307 353 19,000  Level New York Center
01:33PM 40.8922 -76.8625 22° Northeast 307 353 19,000 -360 Level New York Center
01:34PM 40.9736 -76.8175 23° Northeast 307 353 18,300 -1,020 Descending New York Center
01:35PM 41.0531 -76.7722 23° Northeast 307 353 17,000 -1,200 Descending New York Center
01:36PM 41.1281 -76.7292 23° Northeast 302 348 16,000 -1,020 Descending New York Center
01:37PM 41.2033 -76.6864 23° Northeast 302 348 15,000 -1,020 Descending New York Center
01:38PM 41.2828 -76.6381 25° Northeast 307 353 14,000 -960 Descending New York Center
01:39PM 41.3706 -76.5903 22° Northeast 307 353 13,100 -480 Descending New York Center
01:40PM 41.4456 -76.5469 23° Northeast 307 353 13,100  Level New York Center
01:41PM 41.5181 -76.5089 21° North 296 341 13,100  Level New York Center
01:42PM 41.5825 -76.4672 26° Northeast 291 335 13,100 -540 Level New York Center
01:43PM 41.6575 -76.4264 22° Northeast 285 328 12,100 -1,200 Descending New York Center
01:44PM 41.7411 -76.3778 23° Northeast 285 328 10,700 -1,440 Descending New York Center
01:45PM 41.8175 -76.3425 19° North 285 328 9,300 -1,320 Descending New York Center
01:46PM 41.8919 -76.3125 17° North 285 328 8,100 -1,260 Descending New York Center
01:47PM 41.9578 -76.2847 17° North 279 321 6,800 -1,380 Descending New York Center
01:48PM 42.0383 -76.2522 17° North 273 314 5,400 -1,320 Descending New York Center
01:49PM 42.1086 -76.2217 18° North 268 308 4,200 -960 Descending New York Center
01:50PM 42.1783 -76.1994 13° North 268 308 3,500 -360 Descending New York Center
01:51PM 42.2417 -76.1767 15° North 249 287 3,500  Level New York Center
01:52PM 42.2994 -76.1900 350° North 222 255 3,500  Level New York Center
01:53PM 42.3464 -76.1658 21° North 201 231 3,500  Level New York Center
01:54PM 42.3369 -76.0950 100° East 132 152 3,500  Level New York Center
01:55PM 42.2969 -76.0608 148° Southeast 114 131 3,500 -360 Level New York Center
01:56PM 42.2608 -76.0269 145° Southeast 134 154 2,800 -720 Descending New York Center
01:58PM 42.2084 -75.9796 North  Level Estimated
02:05PM 42.2084 -75.9796 North  Level Estimated
02:06PM 42.2084 -75.9796 North  Level Estimated
02:07PM 42.2084 -75.9796 North  Level Estimated
02:08PM 42.2084 -75.9796 North  Level Estimated